Time;durP1;ratioP1;P1;durP2;ratioP2;P2;SDS_P1;SDS_P2;PMS_P1;PMS_P2;Temp;Humidity;BMP_temperature;BMP_pressure;BME280_temperature;BME280_humidity;BME280_pressure;Samples;Min_cycle;Max_cycle;Signal;HPM_P1;HPM_P2
2023/05/31 00:01:50;;;;;;;12.90;9.13;;;;;;;;;;5073881;28;20805;-69
2023/05/31 00:04:17;;;;;;;9.83;8.90;;;;;;;;;;5073149;28;20796;-69
2023/05/31 00:06:44;;;;;;;9.07;8.27;;;;;;;;;;5073413;28;20816;-70
2023/05/31 00:09:12;;;;;;;12.43;8.40;;;;;;;;;;5073442;28;20446;-69
2023/05/31 00:11:40;;;;;;;10.30;9.30;;;;;;;;;;5073661;28;20445;-69
2023/05/31 00:14:07;;;;;;;10.83;8.93;;;;;;;;;;5073414;28;20551;-69
2023/05/31 00:16:35;;;;;;;12.40;9.60;;;;;;;;;;5073502;28;20485;-69
2023/05/31 00:19:02;;;;;;;9.83;8.83;;;;;;;;;;5073407;28;20444;-69
2023/05/31 00:21:30;;;;;;;9.70;8.70;;;;;;;;;;5073236;28;20442;-69
2023/05/31 00:23:57;;;;;;;20.83;9.50;;;;;;;;;;5073357;28;20541;-69
2023/05/31 00:26:24;;;;;;;9.67;8.73;;;;;;;;;;5073420;28;20438;-69
2023/05/31 00:28:53;;;;;;;10.87;9.77;;;;;;;;;;5073280;28;20449;-69
2023/05/31 00:31:20;;;;;;;14.07;9.87;;;;;;;;;;5073130;28;20470;-69
2023/05/31 00:33:47;;;;;;;11.27;9.47;;;;;;;;;;5073089;28;20447;-69
2023/05/31 00:36:15;;;;;;;12.13;10.17;;;;;;;;;;5073058;28;20441;-69
2023/05/31 00:38:42;;;;;;;10.37;9.33;;;;;;;;;;5073439;28;20446;-69
2023/05/31 00:41:10;;;;;;;13.97;9.50;;;;;;;;;;5073027;28;20456;-69
2023/05/31 00:43:37;;;;;;;12.10;9.63;;;;;;;;;;5072993;28;20442;-69
2023/05/31 00:46:06;;;;;;;15.13;9.90;;;;;;;;;;5072543;28;20452;-69
2023/05/31 00:48:33;;;;;;;10.97;9.80;;;;;;;;;;5072777;28;20485;-69
2023/05/31 00:51:00;;;;;;;10.83;9.17;;;;;;;;;;5072537;28;20443;-69
2023/05/31 00:53:28;;;;;;;10.40;9.30;;;;;;;;;;5073058;28;20923;-69
2023/05/31 00:55:55;;;;;;;12.27;9.70;;;;;;;;;;5072881;28;20457;-70
2023/05/31 00:58:24;;;;;;;11.40;9.93;;;;;;;;;;5072782;28;20923;-72
2023/05/31 01:00:51;;;;;;;13.00;10.47;;;;;;;;;;5072836;28;20517;-69
2023/05/31 01:03:20;;;;;;;11.77;10.57;;;;;;;;;;5072392;28;20446;-69
2023/05/31 01:05:47;;;;;;;12.10;10.47;;;;;;;;;;5072318;28;20443;-69
2023/05/31 01:08:16;;;;;;;10.40;8.43;;;;;;;;;;5072725;28;20502;-69
2023/05/31 01:10:44;;;;;;;12.93;10.93;;;;;;;;;;5072321;28;20443;-69
2023/05/31 01:13:14;;;;;;;11.53;10.30;;;;;;;;;;5073018;28;20446;-69
2023/05/31 01:15:45;;;;;;;13.97;10.30;;;;;;;;;;5072542;28;20480;-69
2023/05/31 01:18:18;;;;;;;13.43;10.57;;;;;;;;;;5072524;28;20438;-69
2023/05/31 01:20:47;;;;;;;13.90;11.30;;;;;;;;;;5072676;28;20423;-69
2023/05/31 01:23:34;;;;;;;12.20;9.93;;;;;;;;;;5072992;28;20476;-69
2023/05/31 01:26:17;;;;;;;13.30;10.30;;;;;;;;;;5073445;28;20430;-69
2023/05/31 01:28:46;;;;;;;15.47;10.20;;;;;;;;;;5076150;28;20492;-70
2023/05/31 01:31:15;;;;;;;11.80;10.10;;;;;;;;;;5076147;28;20441;-69
2023/05/31 01:33:43;;;;;;;14.87;11.40;;;;;;;;;;5076138;28;20441;-69
2023/05/31 01:36:10;;;;;;;14.37;10.30;;;;;;;;;;5076023;28;20435;-69
2023/05/31 01:38:37;;;;;;;16.90;10.27;;;;;;;;;;5076013;28;20444;-69
2023/05/31 01:41:06;;;;;;;14.40;10.77;;;;;;;;;;5075784;28;20844;-69
2023/05/31 01:43:35;;;;;;;14.30;10.60;;;;;;;;;;5075986;28;20890;-69
2023/05/31 01:46:03;;;;;;;18.53;11.80;;;;;;;;;;5076091;28;20482;-69
2023/05/31 01:48:31;;;;;;;13.00;11.30;;;;;;;;;;5075799;28;20473;-69
2023/05/31 01:50:59;;;;;;;13.23;11.40;;;;;;;;;;5075749;28;20613;-69
2023/05/31 01:53:26;;;;;;;14.37;11.43;;;;;;;;;;5075870;28;20442;-69
2023/05/31 01:55:54;;;;;;;14.13;11.50;;;;;;;;;;5075324;28;20935;-69
2023/05/31 01:58:22;;;;;;;14.33;11.27;;;;;;;;;;5075267;28;20491;-69
2023/05/31 02:00:49;;;;;;;14.20;11.83;;;;;;;;;;5075568;28;20467;-69
2023/05/31 02:03:18;;;;;;;14.77;11.77;;;;;;;;;;5075772;28;20440;-69
2023/05/31 02:05:58;;;;;;;16.73;11.30;;;;;;;;;;5075644;28;20453;-69
2023/05/31 02:08:25;;;;;;;18.50;12.30;;;;;;;;;;5075432;28;20510;-70
2023/05/31 02:10:52;;;;;;;17.60;14.13;;;;;;;;;;5075385;28;20838;-69
2023/05/31 02:13:20;;;;;;;17.90;12.17;;;;;;;;;;5075976;28;20496;-69
2023/05/31 02:15:47;;;;;;;15.00;11.93;;;;;;;;;;5074911;28;20480;-69
2023/05/31 02:18:17;;;;;;;15.60;11.73;;;;;;;;;;5075332;28;20476;-69
2023/05/31 02:20:44;;;;;;;15.07;11.80;;;;;;;;;;5075277;28;20446;-69
2023/05/31 02:23:11;;;;;;;13.87;11.23;;;;;;;;;;5075390;28;20439;-69
2023/05/31 02:25:39;;;;;;;13.70;11.07;;;;;;;;;;5075300;28;20443;-69
2023/05/31 02:28:06;;;;;;;15.40;12.53;;;;;;;;;;5075885;28;20469;-69
2023/05/31 02:30:35;;;;;;;16.17;12.93;;;;;;;;;;5075526;28;20456;-69
2023/05/31 02:33:03;;;;;;;20.13;12.80;;;;;;;;;;5074870;28;20869;-69
2023/05/31 02:35:31;;;;;;;15.40;12.53;;;;;;;;;;5074507;28;20499;-69
2023/05/31 02:37:58;;;;;;;14.70;12.30;;;;;;;;;;5074925;28;20533;-69
2023/05/31 02:40:26;;;;;;;15.13;12.30;;;;;;;;;;5074488;28;20452;-68
2023/05/31 02:42:53;;;;;;;17.47;12.80;;;;;;;;;;5074528;28;20913;-69
2023/05/31 02:45:20;;;;;;;17.20;12.30;;;;;;;;;;5074684;28;20446;-69
2023/05/31 02:47:47;;;;;;;19.87;13.03;;;;;;;;;;5074659;28;20479;-69
2023/05/31 02:50:15;;;;;;;18.10;13.50;;;;;;;;;;5074984;28;20449;-69
2023/05/31 02:52:43;;;;;;;23.00;14.70;;;;;;;;;;5074777;28;20543;-69
2023/05/31 02:55:10;;;;;;;22.70;16.60;;;;;;;;;;5074179;28;20957;-69
2023/05/31 02:57:37;;;;;;;23.90;19.50;;;;;;;;;;5074164;28;20449;-69
2023/05/31 03:00:10;;;;;;;26.03;19.17;;;;;;;;;;5074052;28;20443;-69
2023/05/31 03:02:38;;;;;;;22.00;17.40;;;;;;;;;;5074781;28;20429;-69
2023/05/31 03:05:05;;;;;;;28.80;18.50;;;;;;;;;;5074320;28;20504;-70
2023/05/31 03:07:32;;;;;;;23.00;15.07;;;;;;;;;;5074257;28;20527;-69
2023/05/31 03:10:04;;;;;;;21.10;15.67;;;;;;;;;;5073945;28;20517;-69
2023/05/31 03:12:31;;;;;;;15.87;12.30;;;;;;;;;;5074229;28;20521;-69
2023/05/31 03:14:58;;;;;;;18.43;14.43;;;;;;;;;;5074666;28;20456;-69
2023/05/31 03:17:25;;;;;;;21.80;13.93;;;;;;;;;;5073648;28;20560;-69
2023/05/31 03:19:52;;;;;;;20.23;13.80;;;;;;;;;;5074412;28;20437;-69
2023/05/31 03:22:20;;;;;;;18.77;13.50;;;;;;;;;;5073620;28;20449;-69
2023/05/31 03:24:48;;;;;;;18.73;12.97;;;;;;;;;;5074161;28;20443;-70
2023/05/31 03:27:16;;;;;;;15.60;12.30;;;;;;;;;;5073561;28;20939;-69
2023/05/31 03:29:44;;;;;;;21.70;13.90;;;;;;;;;;5073948;28;20441;-69
2023/05/31 03:32:12;;;;;;;19.70;13.00;;;;;;;;;;5073513;28;20446;-69
2023/05/31 03:34:39;;;;;;;17.00;12.27;;;;;;;;;;5073441;28;20441;-69
2023/05/31 03:37:06;;;;;;;20.27;12.10;;;;;;;;;;5073259;28;20445;-70
2023/05/31 03:39:33;;;;;;;16.00;13.23;;;;;;;;;;5073721;28;20544;-69
2023/05/31 03:42:02;;;;;;;21.47;14.40;;;;;;;;;;5073301;28;20437;-69
2023/05/31 03:44:30;;;;;;;19.00;13.57;;;;;;;;;;5073638;28;20443;-70
2023/05/31 03:46:58;;;;;;;21.03;12.90;;;;;;;;;;5073747;28;20437;-70
2023/05/31 03:49:25;;;;;;;20.27;14.97;;;;;;;;;;5073129;28;20531;-70
2023/05/31 03:51:53;;;;;;;25.30;13.40;;;;;;;;;;5072361;28;20926;-70
2023/05/31 03:54:21;;;;;;;19.80;13.80;;;;;;;;;;5073563;28;20933;-70
2023/05/31 03:56:48;;;;;;;15.90;12.47;;;;;;;;;;5073030;28;20444;-69
2023/05/31 03:59:15;;;;;;;18.17;12.80;;;;;;;;;;5072977;28;20471;-69
2023/05/31 04:01:44;;;;;;;21.30;13.27;;;;;;;;;;5073261;28;20437;-69
2023/05/31 04:04:11;;;;;;;21.53;15.00;;;;;;;;;;5073322;28;20536;-69
2023/05/31 04:06:38;;;;;;;24.03;13.70;;;;;;;;;;5073164;28;20436;-69
2023/05/31 04:09:05;;;;;;;19.20;14.50;;;;;;;;;;5072991;28;20479;-70
2023/05/31 04:11:33;;;;;;;21.47;12.67;;;;;;;;;;5073275;28;20445;-74
2023/05/31 04:14:00;;;;;;;23.57;14.27;;;;;;;;;;5073277;28;20441;-68
2023/05/31 04:16:27;;;;;;;17.30;13.03;;;;;;;;;;5073166;28;20474;-70
2023/05/31 04:18:56;;;;;;;23.43;15.30;;;;;;;;;;5072990;28;20447;-69
2023/05/31 04:21:23;;;;;;;21.60;14.60;;;;;;;;;;5072760;28;20446;-70
2023/05/31 04:23:50;;;;;;;18.10;14.63;;;;;;;;;;5072988;28;20449;-69
2023/05/31 04:26:17;;;;;;;24.47;14.30;;;;;;;;;;5072818;28;20443;-69
2023/05/31 04:28:44;;;;;;;19.80;13.77;;;;;;;;;;5073223;28;21036;-69
2023/05/31 04:31:12;;;;;;;18.43;13.60;;;;;;;;;;5073125;28;20441;-70
2023/05/31 04:33:42;;;;;;;19.40;13.40;;;;;;;;;;5073022;28;20468;-70
2023/05/31 04:36:10;;;;;;;18.40;13.00;;;;;;;;;;5072675;28;20445;-69
2023/05/31 04:38:39;;;;;;;20.00;12.67;;;;;;;;;;5073047;28;20440;-69
2023/05/31 04:41:06;;;;;;;21.27;14.97;;;;;;;;;;5072598;28;20937;-71
2023/05/31 04:43:33;;;;;;;21.07;14.70;;;;;;;;;;5072939;28;20527;-70
2023/05/31 04:46:00;;;;;;;26.10;13.43;;;;;;;;;;5073001;28;20504;-70
2023/05/31 04:48:28;;;;;;;19.43;14.70;;;;;;;;;;5072556;28;20468;-70
2023/05/31 04:50:56;;;;;;;21.97;13.30;;;;;;;;;;5072981;28;20448;-69
2023/05/31 04:53:24;;;;;;;26.80;14.63;;;;;;;;;;5072716;28;20476;-69
2023/05/31 04:55:52;;;;;;;21.67;14.90;;;;;;;;;;5072578;28;20794;-67
2023/05/31 04:58:20;;;;;;;23.53;14.10;;;;;;;;;;5072818;28;20500;-68
2023/05/31 05:00:48;;;;;;;16.30;11.63;;;;;;;;;;5073405;28;20831;-68
2023/05/31 05:03:15;;;;;;;17.67;12.67;;;;;;;;;;5076842;28;20558;-68
2023/05/31 05:05:42;;;;;;;20.23;13.20;;;;;;;;;;5077038;28;20529;-68
2023/05/31 05:08:10;;;;;;;19.73;12.50;;;;;;;;;;5076452;28;20484;-68
2023/05/31 05:10:38;;;;;;;18.37;13.57;;;;;;;;;;5076884;28;20442;-68
2023/05/31 05:13:05;;;;;;;21.53;12.97;;;;;;;;;;5076143;28;20450;-68
2023/05/31 05:15:32;;;;;;;19.77;14.10;;;;;;;;;;5075807;28;20934;-68
2023/05/31 05:18:00;;;;;;;20.30;12.90;;;;;;;;;;5076008;28;20941;-68
2023/05/31 05:20:27;;;;;;;20.03;12.03;;;;;;;;;;5076701;28;20814;-68
2023/05/31 05:22:54;;;;;;;14.90;12.03;;;;;;;;;;5076658;28;20435;-68
2023/05/31 05:25:22;;;;;;;20.07;13.67;;;;;;;;;;5076073;28;20454;-68
2023/05/31 05:27:50;;;;;;;20.03;13.47;;;;;;;;;;5076212;28;20508;-68
2023/05/31 05:30:18;;;;;;;20.37;13.03;;;;;;;;;;5076117;28;20513;-70
2023/05/31 05:32:45;;;;;;;20.63;13.43;;;;;;;;;;5075869;28;20436;-71
2023/05/31 05:35:13;;;;;;;18.60;12.50;;;;;;;;;;5075734;28;20453;-70
2023/05/31 05:37:40;;;;;;;20.77;13.13;;;;;;;;;;5076216;28;20452;-70
2023/05/31 05:40:08;;;;;;;21.47;14.33;;;;;;;;;;5076119;28;20441;-68
2023/05/31 05:42:36;;;;;;;22.87;13.60;;;;;;;;;;5075607;28;20442;-70
2023/05/31 05:45:07;;;;;;;19.60;12.40;;;;;;;;;;5075754;28;20531;-70
2023/05/31 05:47:34;;;;;;;19.17;12.20;;;;;;;;;;5075262;28;20435;-70
2023/05/31 05:50:01;;;;;;;22.20;11.80;;;;;;;;;;5075174;28;20477;-70
2023/05/31 05:52:29;;;;;;;16.10;11.57;;;;;;;;;;5075860;28;20438;-70
2023/05/31 05:54:56;;;;;;;19.80;12.93;;;;;;;;;;5075451;28;20450;-70
2023/05/31 05:57:24;;;;;;;15.10;10.80;;;;;;;;;;5075386;28;20441;-70
2023/05/31 05:59:52;;;;;;;12.43;10.70;;;;;;;;;;5075487;28;20454;-70
2023/05/31 06:02:21;;;;;;;17.83;10.13;;;;;;;;;;5075905;28;20793;-69
2023/05/31 06:04:49;;;;;;;15.80;11.13;;;;;;;;;;5075009;28;20443;-70
2023/05/31 06:07:16;;;;;;;19.07;10.83;;;;;;;;;;5075337;28;20497;-70
2023/05/31 06:09:44;;;;;;;15.77;10.03;;;;;;;;;;5075120;28;20478;-70
2023/05/31 06:12:11;;;;;;;18.03;10.00;;;;;;;;;;5074490;28;20449;-69
2023/05/31 06:14:38;;;;;;;21.37;11.53;;;;;;;;;;5074446;28;20448;-72
2023/05/31 06:17:05;;;;;;;16.80;11.70;;;;;;;;;;5075191;28;21072;-70
2023/05/31 06:19:34;;;;;;;16.10;11.70;;;;;;;;;;5075129;28;20446;-70
2023/05/31 06:22:02;;;;;;;17.20;11.93;;;;;;;;;;5074936;28;20522;-70
2023/05/31 06:24:29;;;;;;;14.50;10.03;;;;;;;;;;5074639;28;20447;-70
2023/05/31 06:26:56;;;;;;;22.97;10.97;;;;;;;;;;5074708;28;20933;-70
2023/05/31 06:29:23;;;;;;;17.03;10.30;;;;;;;;;;5074755;28;20522;-70
2023/05/31 06:31:51;;;;;;;24.40;11.00;;;;;;;;;;5074823;28;20443;-70
2023/05/31 06:34:18;;;;;;;15.60;10.33;;;;;;;;;;5074721;28;20453;-70
2023/05/31 06:36:46;;;;;;;16.50;10.67;;;;;;;;;;5074625;28;20439;-69
2023/05/31 06:39:14;;;;;;;18.73;11.27;;;;;;;;;;5074702;28;20447;-70
2023/05/31 06:41:41;;;;;;;19.03;12.60;;;;;;;;;;5074725;28;20463;-71
2023/05/31 06:44:08;;;;;;;17.30;11.20;;;;;;;;;;5074492;28;20447;-70
2023/05/31 06:46:35;;;;;;;16.20;10.90;;;;;;;;;;5074752;28;20477;-70
2023/05/31 06:49:02;;;;;;;19.70;10.80;;;;;;;;;;5074470;28;20922;-69
2023/05/31 06:51:30;;;;;;;16.57;10.00;;;;;;;;;;5074420;28;20787;-70
2023/05/31 06:54:00;;;;;;;14.13;11.23;;;;;;;;;;5074748;28;20452;-68
2023/05/31 06:56:28;;;;;;;14.00;10.60;;;;;;;;;;5073749;28;20447;-68
2023/05/31 06:58:55;;;;;;;17.70;11.00;;;;;;;;;;5074162;28;20469;-68
2023/05/31 07:01:23;;;;;;;19.40;10.73;;;;;;;;;;5074203;28;20806;-67
2023/05/31 07:03:51;;;;;;;20.07;11.13;;;;;;;;;;5073862;28;20921;-70
2023/05/31 07:06:18;;;;;;;16.37;10.83;;;;;;;;;;5074177;28;20444;-70
2023/05/31 07:08:46;;;;;;;22.27;9.73;;;;;;;;;;5074285;28;20444;-70
2023/05/31 07:11:14;;;;;;;13.43;8.77;;;;;;;;;;5073745;28;20960;-68
2023/05/31 07:13:42;;;;;;;18.07;10.33;;;;;;;;;;5074146;28;20442;-69
2023/05/31 07:16:09;;;;;;;15.33;9.50;;;;;;;;;;5073423;28;20514;-68
2023/05/31 07:18:36;;;;;;;13.57;9.47;;;;;;;;;;5073565;28;20538;-69
2023/05/31 07:21:03;;;;;;;16.23;10.17;;;;;;;;;;5073341;28;20447;-68
2023/05/31 07:23:31;;;;;;;11.03;8.40;;;;;;;;;;5072735;28;20446;-68
2023/05/31 07:26:00;;;;;;;17.20;10.40;;;;;;;;;;5073427;28;20452;-69
2023/05/31 07:28:32;;;;;;;19.90;10.63;;;;;;;;;;5073405;28;20990;-69
2023/05/31 07:31:00;;;;;;;13.00;10.07;;;;;;;;;;5073294;28;20993;-71
2023/05/31 07:33:28;;;;;;;15.47;10.23;;;;;;;;;;5073675;28;20448;-71
2023/05/31 07:35:55;;;;;;;17.57;9.40;;;;;;;;;;5072942;28;20480;-70
2023/05/31 07:38:22;;;;;;;13.67;9.53;;;;;;;;;;5073370;28;20909;-69
2023/05/31 07:40:49;;;;;;;23.90;10.13;;;;;;;;;;5073221;28;20856;-68
2023/05/31 07:43:20;;;;;;;17.60;10.07;;;;;;;;;;5073434;28;20756;-70
2023/05/31 07:45:47;;;;;;;11.43;7.83;;;;;;;;;;5073624;28;20463;-71
2023/05/31 07:48:16;;;;;;;14.03;7.73;;;;;;;;;;5073518;28;20434;-70
2023/05/31 07:50:43;;;;;;;12.00;7.23;;;;;;;;;;5073117;28;20574;-71
2023/05/31 07:53:10;;;;;;;13.03;8.13;;;;;;;;;;5073601;28;20438;-71
2023/05/31 07:55:38;;;;;;;14.37;8.67;;;;;;;;;;5073158;28;20798;-70
2023/05/31 07:58:05;;;;;;;16.57;7.73;;;;;;;;;;5073404;28;20447;-70
2023/05/31 08:00:32;;;;;;;13.80;8.00;;;;;;;;;;5073223;28;20501;-71
2023/05/31 08:02:59;;;;;;;20.83;12.87;;;;;;;;;;5073839;28;20453;-70
2023/05/31 08:05:28;;;;;;;10.73;8.23;;;;;;;;;;5073155;28;20438;-69
2023/05/31 08:07:55;;;;;;;11.20;7.67;;;;;;;;;;5073247;28;20536;-70
2023/05/31 08:10:22;;;;;;;11.60;8.10;;;;;;;;;;5073049;28;20518;-70
2023/05/31 08:12:50;;;;;;;12.87;6.83;;;;;;;;;;5072530;28;20443;-70
2023/05/31 08:15:17;;;;;;;10.80;7.20;;;;;;;;;;5072666;28;20443;-70
2023/05/31 08:17:46;;;;;;;13.67;8.57;;;;;;;;;;5073447;28;20431;-70
2023/05/31 08:20:15;;;;;;;13.17;7.60;;;;;;;;;;5073419;28;21029;-70
2023/05/31 08:22:45;;;;;;;13.37;7.43;;;;;;;;;;5072712;28;20931;-70
2023/05/31 08:25:13;;;;;;;14.90;7.37;;;;;;;;;;5072554;28;20447;-70
2023/05/31 08:27:41;;;;;;;9.57;6.27;;;;;;;;;;5072635;28;20913;-69
2023/05/31 08:30:10;;;;;;;11.33;7.47;;;;;;;;;;5072380;28;20479;-70
2023/05/31 08:32:37;;;;;;;10.67;6.87;;;;;;;;;;5072532;28;20442;-70
2023/05/31 08:35:06;;;;;;;9.30;6.93;;;;;;;;;;5073258;28;20529;-70
2023/05/31 08:37:33;;;;;;;11.30;7.97;;;;;;;;;;5076990;28;20479;-69
2023/05/31 08:40:01;;;;;;;8.33;6.80;;;;;;;;;;5076862;28;20446;-70
2023/05/31 08:42:30;;;;;;;11.53;7.23;;;;;;;;;;5076592;28;20485;-70
2023/05/31 08:44:57;;;;;;;11.90;7.50;;;;;;;;;;5076983;28;20533;-70
2023/05/31 08:47:25;;;;;;;9.07;6.87;;;;;;;;;;5076476;28;20436;-70
2023/05/31 08:49:54;;;;;;;8.73;6.80;;;;;;;;;;5076921;28;20472;-70
2023/05/31 08:52:22;;;;;;;10.80;6.70;;;;;;;;;;5076955;28;20475;-70
2023/05/31 08:54:50;;;;;;;9.20;6.20;;;;;;;;;;5076210;28;20451;-71
2023/05/31 08:57:18;;;;;;;8.97;6.23;;;;;;;;;;5076381;28;20457;-69
2023/05/31 08:59:46;;;;;;;8.97;6.00;;;;;;;;;;5076688;28;20447;-69
2023/05/31 09:02:14;;;;;;;9.83;6.03;;;;;;;;;;5076436;28;20449;-69
2023/05/31 09:04:41;;;;;;;13.47;6.60;;;;;;;;;;5076501;28;20906;-70
2023/05/31 09:07:08;;;;;;;12.10;6.50;;;;;;;;;;5075939;28;20458;-69
2023/05/31 09:09:36;;;;;;;7.20;5.30;;;;;;;;;;5076291;28;20478;-69
2023/05/31 09:12:03;;;;;;;7.30;5.97;;;;;;;;;;5076228;28;20548;-69
2023/05/31 09:14:33;;;;;;;12.13;6.00;;;;;;;;;;5075916;28;20505;-69
2023/05/31 09:17:01;;;;;;;12.20;5.93;;;;;;;;;;5075710;28;21008;-69
2023/05/31 09:19:28;;;;;;;10.93;5.93;;;;;;;;;;5075866;28;20444;-70
2023/05/31 09:21:55;;;;;;;9.63;5.60;;;;;;;;;;5075945;28;20447;-69
2023/05/31 09:24:22;;;;;;;12.50;4.73;;;;;;;;;;5075683;28;20441;-70
2023/05/31 09:26:50;;;;;;;6.50;5.00;;;;;;;;;;5075563;28;20534;-69
2023/05/31 09:29:17;;;;;;;7.27;5.73;;;;;;;;;;5075783;28;20443;-69
2023/05/31 09:31:46;;;;;;;8.07;5.03;;;;;;;;;;5075832;28;20447;-69
2023/05/31 09:34:25;;;;;;;8.87;7.10;;;;;;;;;;5075554;28;20453;-70
2023/05/31 09:36:52;;;;;;;5.90;4.73;;;;;;;;;;5075262;28;20928;-70
2023/05/31 09:39:20;;;;;;;8.27;4.60;;;;;;;;;;5075848;28;20432;-70
2023/05/31 09:41:50;;;;;;;7.20;5.73;;;;;;;;;;5075209;28;20440;-70
2023/05/31 09:44:18;;;;;;;12.20;4.90;;;;;;;;;;5075918;28;20489;-70
2023/05/31 09:46:47;;;;;;;11.57;4.73;;;;;;;;;;5075064;28;20458;-70
2023/05/31 09:49:15;;;;;;;6.50;4.33;;;;;;;;;;5075463;28;20446;-69
2023/05/31 09:51:51;;;;;;;7.67;4.60;;;;;;;;;;5075326;28;20983;-70
2023/05/31 09:54:22;;;;;;;13.70;6.10;;;;;;;;;;5075591;28;20432;-70
2023/05/31 09:56:49;;;;;;;8.63;4.50;;;;;;;;;;5075294;28;20794;-69
2023/05/31 09:59:17;;;;;;;11.83;6.20;;;;;;;;;;5075548;28;20436;-70
2023/05/31 10:01:45;;;;;;;7.60;4.43;;;;;;;;;;5075328;28;20448;-70
2023/05/31 10:04:14;;;;;;;9.13;4.80;;;;;;;;;;5075013;28;20958;-70
2023/05/31 10:06:41;;;;;;;6.57;4.00;;;;;;;;;;5074715;28;20808;-69
2023/05/31 10:09:09;;;;;;;10.23;4.63;;;;;;;;;;5075321;28;20440;-69
2023/05/31 10:11:36;;;;;;;6.77;3.43;;;;;;;;;;5074999;28;20487;-69
2023/05/31 10:14:05;;;;;;;6.30;3.67;;;;;;;;;;5075177;28;20611;-69
2023/05/31 10:16:36;;;;;;;6.23;4.10;;;;;;;;;;5074422;28;20484;-70
2023/05/31 10:19:06;;;;;;;4.90;3.90;;;;;;;;;;5074692;28;20429;-70
2023/05/31 10:21:36;;;;;;;9.13;4.23;;;;;;;;;;5074375;28;20479;-70
2023/05/31 10:24:05;;;;;;;8.10;4.27;;;;;;;;;;5075473;28;20433;-70
2023/05/31 10:26:36;;;;;;;16.73;7.60;;;;;;;;;;5074299;28;20498;-70
2023/05/31 10:29:07;;;;;;;13.90;5.90;;;;;;;;;;5075364;28;20429;-69
2023/05/31 10:31:38;;;;;;;5.83;3.90;;;;;;;;;;5074358;28;20508;-70
2023/05/31 10:34:10;;;;;;;7.30;3.53;;;;;;;;;;5074751;28;20924;-70
2023/05/31 10:36:39;;;;;;;7.93;4.07;;;;;;;;;;5074211;28;20464;-70
2023/05/31 10:39:09;;;;;;;7.70;4.37;;;;;;;;;;5074867;28;20432;-69
2023/05/31 10:41:40;;;;;;;15.93;5.50;;;;;;;;;;5074803;28;20448;-69
2023/05/31 10:44:11;;;;;;;8.73;3.80;;;;;;;;;;5073617;28;20433;-69
2023/05/31 10:46:40;;;;;;;7.83;4.30;;;;;;;;;;5073644;28;20453;-70
2023/05/31 10:49:10;;;;;;;6.07;4.67;;;;;;;;;;5074269;28;20860;-69
2023/05/31 10:51:44;;;;;;;5.90;4.30;;;;;;;;;;5074572;28;20574;-70
2023/05/31 10:54:15;;;;;;;6.00;3.73;;;;;;;;;;5074040;28;20437;-69
2023/05/31 10:56:42;;;;;;;6.80;4.83;;;;;;;;;;5074403;28;20789;-69
2023/05/31 10:59:10;;;;;;;8.60;3.60;;;;;;;;;;5073060;28;20490;-69
2023/05/31 11:01:37;;;;;;;7.10;3.80;;;;;;;;;;5074132;28;20452;-69
2023/05/31 11:04:19;;;;;;;6.10;3.90;;;;;;;;;;5073656;28;20447;-70
2023/05/31 11:06:48;;;;;;;8.20;4.00;;;;;;;;;;5073418;28;20485;-71
2023/05/31 11:09:16;;;;;;;6.60;3.87;;;;;;;;;;5073726;28;20520;-69
2023/05/31 11:11:47;;;;;;;10.60;4.80;;;;;;;;;;5073871;28;20529;-69
2023/05/31 11:14:27;;;;;;;6.30;4.20;;;;;;;;;;5073695;28;20440;-69
2023/05/31 11:17:14;;;;;;;7.03;3.67;;;;;;;;;;5073818;28;20480;-69
2023/05/31 11:19:43;;;;;;;8.77;3.70;;;;;;;;;;5073866;28;20482;-70
2023/05/31 11:22:12;;;;;;;7.73;3.80;;;;;;;;;;5073320;28;20539;-70
2023/05/31 11:24:40;;;;;;;6.67;4.23;;;;;;;;;;5073849;28;20433;-69
2023/05/31 11:27:12;;;;;;;3.97;3.37;;;;;;;;;;5073171;28;20524;-70
2023/05/31 11:29:58;;;;;;;7.03;3.90;;;;;;;;;;5073524;28;20495;-69
2023/05/31 11:32:40;;;;;;;10.97;5.63;;;;;;;;;;5073281;28;20441;-69
2023/05/31 11:35:08;;;;;;;8.73;4.70;;;;;;;;;;5073199;28;20442;-69
2023/05/31 11:37:38;;;;;;;6.93;3.73;;;;;;;;;;5073341;28;20444;-69
2023/05/31 11:40:07;;;;;;;7.83;3.73;;;;;;;;;;5073414;28;20438;-69
2023/05/31 11:42:35;;;;;;;8.80;3.60;;;;;;;;;;5072844;28;20446;-69
2023/05/31 11:45:04;;;;;;;21.80;9.17;;;;;;;;;;5073288;28;20452;-69
2023/05/31 11:47:34;;;;;;;11.90;4.17;;;;;;;;;;5072980;28;20446;-69
2023/05/31 11:50:02;;;;;;;5.13;3.20;;;;;;;;;;5073318;28;20442;-69
2023/05/31 11:52:30;;;;;;;7.87;3.20;;;;;;;;;;5073353;28;20496;-69
2023/05/31 11:55:05;;;;;;;4.33;3.10;;;;;;;;;;5073157;28;20437;-69
2023/05/31 11:57:41;;;;;;;5.67;2.80;;;;;;;;;;5072811;28;20942;-69
2023/05/31 12:00:10;;;;;;;5.70;3.63;;;;;;;;;;5073349;28;20433;-69
2023/05/31 12:02:38;;;;;;;7.77;3.30;;;;;;;;;;5073063;28;20495;-71
2023/05/31 12:05:05;;;;;;;4.93;3.50;;;;;;;;;;5073455;28;20804;-69
2023/05/31 12:07:33;;;;;;;3.77;2.77;;;;;;;;;;5072960;28;20505;-68
2023/05/31 12:10:01;;;;;;;5.30;3.90;;;;;;;;;;5072402;28;20477;-68
2023/05/31 12:12:29;;;;;;;6.43;3.30;;;;;;;;;;5072616;28;21008;-68
2023/05/31 12:14:56;;;;;;;3.63;3.30;;;;;;;;;;5072940;28;20470;-68
2023/05/31 12:17:23;;;;;;;5.47;3.00;;;;;;;;;;5072693;28;20658;-68
2023/05/31 12:19:51;;;;;;;5.23;2.73;;;;;;;;;;5073154;28;20528;-69
2023/05/31 12:22:18;;;;;;;7.47;2.87;;;;;;;;;;5073073;28;20442;-69
2023/05/31 12:24:52;;;;;;;7.13;3.47;;;;;;;;;;5072928;28;20803;-69
2023/05/31 12:27:21;;;;;;;5.53;3.80;;;;;;;;;;5072911;28;20777;-69
2023/05/31 12:29:48;;;;;;;5.40;4.07;;;;;;;;;;5073028;28;20448;-69
2023/05/31 12:32:19;;;;;;;5.10;3.40;;;;;;;;;;5072617;28;20969;-69
2023/05/31 12:34:47;;;;;;;5.00;3.27;;;;;;;;;;5073079;28;20432;-68
2023/05/31 12:37:14;;;;;;;8.43;3.70;;;;;;;;;;5073010;28;20443;-69
2023/05/31 12:39:41;;;;;;;5.27;3.40;;;;;;;;;;5073083;28;20443;-69
2023/05/31 12:42:09;;;;;;;3.97;2.77;;;;;;;;;;5072475;28;20524;-68
2023/05/31 12:44:38;;;;;;;7.00;3.23;;;;;;;;;;5072220;28;20526;-69
2023/05/31 12:47:08;;;;;;;6.60;3.77;;;;;;;;;;5072563;28;20445;-69
2023/05/31 12:49:36;;;;;;;7.10;3.20;;;;;;;;;;5072671;28;20770;-68
2023/05/31 12:52:05;;;;;;;6.80;3.50;;;;;;;;;;5072280;28;20478;-68
2023/05/31 12:54:33;;;;;;;5.53;4.03;;;;;;;;;;5072221;28;20907;-69
2023/05/31 12:57:02;;;;;;;4.73;3.20;;;;;;;;;;5072262;28;20445;-68
2023/05/31 12:59:29;;;;;;;4.20;3.20;;;;;;;;;;5072336;28;20497;-68
2023/05/31 13:01:58;;;;;;;4.13;3.23;;;;;;;;;;5072475;28;20849;-69
2023/05/31 13:04:25;;;;;;;6.40;3.60;;;;;;;;;;5072785;28;20531;-68
2023/05/31 13:06:53;;;;;;;5.47;3.07;;;;;;;;;;5072391;28;20446;-69
2023/05/31 13:09:20;;;;;;;5.70;3.77;;;;;;;;;;5072268;28;20920;-69
2023/05/31 13:11:48;;;;;;;4.33;3.07;;;;;;;;;;5072414;28;20484;-69
2023/05/31 13:14:16;;;;;;;7.53;3.60;;;;;;;;;;5072330;28;20447;-68
2023/05/31 13:16:43;;;;;;;4.47;3.00;;;;;;;;;;5071958;28;20498;-68
2023/05/31 13:19:12;;;;;;;5.10;3.20;;;;;;;;;;5072659;28;20446;-68
2023/05/31 13:21:39;;;;;;;5.77;3.63;;;;;;;;;;5073027;28;20450;-68
2023/05/31 13:24:07;;;;;;;6.70;3.37;;;;;;;;;;5076266;28;20432;-68
2023/05/31 13:26:35;;;;;;;7.17;3.43;;;;;;;;;;5076122;28;20517;-68
2023/05/31 13:29:04;;;;;;;4.87;3.40;;;;;;;;;;5075683;28;20441;-69
2023/05/31 13:31:31;;;;;;;4.77;3.40;;;;;;;;;;5075410;28;20976;-69
2023/05/31 13:33:59;;;;;;;5.07;2.80;;;;;;;;;;5076042;28;20535;-69
2023/05/31 13:36:27;;;;;;;3.43;3.10;;;;;;;;;;5075485;28;20450;-69
2023/05/31 13:38:55;;;;;;;9.23;3.97;;;;;;;;;;5075849;28;20444;-69
2023/05/31 13:41:22;;;;;;;7.10;3.33;;;;;;;;;;5075788;28;20535;-68
2023/05/31 13:43:50;;;;;;;4.60;3.07;;;;;;;;;;5075861;28;20803;-69
2023/05/31 13:46:17;;;;;;;6.70;3.30;;;;;;;;;;5075303;28;20454;-69
2023/05/31 13:48:44;;;;;;;3.77;3.20;;;;;;;;;;5075379;28;20439;-68
2023/05/31 13:51:12;;;;;;;4.50;2.77;;;;;;;;;;5075574;28;20997;-68
2023/05/31 13:53:40;;;;;;;4.00;3.20;;;;;;;;;;5075816;28;20449;-68
2023/05/31 13:56:08;;;;;;;11.83;3.70;;;;;;;;;;5075639;28;20435;-68
2023/05/31 13:58:36;;;;;;;5.77;3.03;;;;;;;;;;5075499;28;20488;-68
2023/05/31 14:01:03;;;;;;;8.47;7.40;;;;;;;;;;5075334;28;20568;-69
2023/05/31 14:03:30;;;;;;;7.90;3.30;;;;;;;;;;5075505;28;20912;-68
2023/05/31 14:05:58;;;;;;;6.17;3.10;;;;;;;;;;5075298;28;20538;-69
2023/05/31 14:08:25;;;;;;;5.23;2.87;;;;;;;;;;5074964;28;20455;-68
2023/05/31 14:10:53;;;;;;;3.80;2.87;;;;;;;;;;5075028;28;20475;-68
2023/05/31 14:13:21;;;;;;;4.40;3.23;;;;;;;;;;5075135;28;20440;-68
2023/05/31 14:15:48;;;;;;;6.93;3.73;;;;;;;;;;5074942;28;20524;-68
2023/05/31 14:18:15;;;;;;;4.87;3.10;;;;;;;;;;5075263;28;20429;-68
2023/05/31 14:20:43;;;;;;;7.97;2.93;;;;;;;;;;5074739;28;20531;-69
2023/05/31 14:23:10;;;;;;;3.90;2.73;;;;;;;;;;5074662;28;20458;-68
2023/05/31 14:25:37;;;;;;;5.60;4.00;;;;;;;;;;5074860;28;20475;-67
2023/05/31 14:28:06;;;;;;;7.03;3.60;;;;;;;;;;5075274;28;20530;-67
2023/05/31 14:30:33;;;;;;;4.40;3.20;;;;;;;;;;5075127;28;20798;-67
2023/05/31 14:33:00;;;;;;;5.80;2.67;;;;;;;;;;5074425;28;20498;-68
2023/05/31 14:35:27;;;;;;;4.10;3.13;;;;;;;;;;5074642;28;20415;-68